Flight Track Log - Related Links

Times and Time Zones

All times are in EDT time to prevent confusion due to time zone crossing. See the OPT471 flight status page for this flight to view local times or setup timezone preferences in your user account.

Time Position Orientation Groundspeed Altitude Reporting Facility
EDT Latitude Longitude Course Direction KTS MPH feet Rate Location/Type
Sat 03:20:17 PM 47.4889 -122.2667 147° Southeast 161 185 2,400  Level Seattle Center
Sat 03:21:18 PM 47.4425 -122.2186 145° Southeast 199 229 5,100 1,721 Climbing Seattle Center
Sat 03:22:19 PM 47.3786 -122.1867 161° South 231 266 5,900 1,574 Climbing Seattle Center
Sat 03:23:20 PM 47.3131 -122.1758 174° South 235 270 8,300 2,656 Climbing Seattle Center
Sat 03:24:21 PM 47.2475 -122.1653 174° South 236 272 11,300 2,705 Climbing Seattle Center
Sat 03:25:22 PM 47.1800 -122.1514 172° South 245 282 13,800 2,410 Climbing Seattle Center
Sat 03:26:23 PM 47.1108 -122.1758 194° South 254 292 16,200 2,115 Climbing Seattle Center
Sat 03:27:24 PM 47.0444 -122.1764 180° South 265 305 18,100 2,115 Climbing Seattle Center
Sat 03:28:25 PM 46.9694 -122.1708 177° South 273 314 20,500 2,213 Climbing Seattle Center
Sat 03:29:26 PM 46.8789 -122.1600 175° South 276 318 22,600 1,721 Climbing Seattle Center
Sat 03:30:27 PM 46.7967 -122.1539 177° South 298 343 24,000 1,328 Climbing Seattle Center
Sat 03:31:28 PM 46.7092 -122.1433 175° South 316 364 25,300 1,328 Climbing Seattle Center
Sat 03:32:29 PM 46.6164 -122.1347 176° South 334 384 26,700 1,377 Climbing Seattle Center
Sat 03:33:30 PM 46.5228 -122.1269 177° South 340 391 28,100 1,377 Climbing Seattle Center
Sat 03:34:31 PM 46.4286 -122.1169 176° South 343 395 29,500 1,328 Climbing Seattle Center
Sat 03:35:32 PM 46.3325 -122.1072 176° South 349 402 30,800 1,230 Climbing Seattle Center
Sat 03:36:33 PM 46.2367 -122.0989 177° South 351 404 32,000 1,131 Climbing Seattle Center
Sat 03:37:34 PM 46.1300 -122.0872 176° South 354 407 33,100 1,033 Climbing Seattle Center
Sat 03:38:35 PM 46.0297 -122.0778 176° South 359 413 34,100 984 Climbing Seattle Center
Sat 03:39:36 PM 45.9303 -122.0667 176° South 359 413 35,100 934 Climbing Seattle Center
Sat 03:40:37 PM 45.8294 -122.0581 177° South 362 417 36,000 843 Climbing Seattle Center
Sat 03:41:37 PM 45.7278 -122.0506 177° South 364 419 36,800 744 Climbing Seattle Center
Sat 03:42:38 PM 45.6253 -122.0419 177° South 365 420 37,500 738 Climbing Seattle Center
Sat 03:43:39 PM 45.4969 -122.0272 175° South 379 436 38,300 787 Climbing Seattle Center
Sat 03:44:40 PM 45.3911 -122.0167 176° South 382 440 39,100 738 Climbing Seattle Center
Sat 03:45:41 PM 45.2842 -122.0056 176° South 383 441 39,800 590 Climbing Seattle Center
Sat 03:46:42 PM 45.1806 -121.9967 177° South 376 433 40,300 443 Climbing Seattle Center
Sat 03:47:43 PM 45.0750 -121.9864 176° South 378 435 40,700 344 Climbing Seattle Center
Sat 03:48:44 PM 44.9675 -121.9767 176° South 383 441 41,000 148 Climbing Seattle Center
Sat 03:49:45 PM 44.8458 -121.9644 176° South 396 456 41,000  Level Seattle Center
Sat 03:50:46 PM 44.7328 -121.9542 176° South 405 466 41,000  Level Seattle Center
Sat 03:51:47 PM 44.6169 -121.9428 176° South 412 474 41,000  Level Seattle Center
Sat 03:52:48 PM 44.5011 -121.9319 176° South 415 478 41,000  Level Seattle Center
Sat 03:53:49 PM 44.3858 -121.9219 176° South 415 478 41,000  Level Seattle Center
Sat 03:54:50 PM 44.2711 -121.9117 176° South 412 474 41,000  Level Seattle Center
Sat 03:55:50 PM 44.1583 -121.9006 176° South 407 468 41,000  Level Seattle Center
Sat 03:56:51 PM 44.0436 -121.8908 177° South 410 472 41,000  Level Seattle Center
Sat 03:57:52 PM 43.9306 -121.8803 176° South 407 468 41,000  Level Seattle Center
Sat 03:58:53 PM 43.8058 -121.8717 177° South 412 474 41,000  Level Seattle Center
Sat 03:59:54 PM 43.6911 -121.8611 176° South 414 476 41,000  Level Seattle Center
Sat 04:00:55 PM 43.5772 -121.8486 175° South 410 472 41,000  Level Seattle Center
Sat 04:01:56 PM 43.4636 -121.8406 177° South 409 471 41,000  Level Seattle Center
Sat 04:02:56 PM 43.3497 -121.8283 176° South 410 472 41,000  Level Seattle Center
Sat 04:03:57 PM 43.2353 -121.8192 177° South 412 474 41,000  Level Seattle Center
Sat 04:04:58 PM 43.1203 -121.8089 176° South 412 474 41,000  Level Seattle Center
Sat 04:05:59 PM 43.0061 -121.8019 177° South 412 474 41,000  Level Seattle Center
Sat 04:07:00 PM 42.8911 -121.7925 177° South 414 476 41,000  Level Seattle Center
Sat 04:08:01 PM 42.7758 -121.7814 176° South 414 476 41,000  Level Seattle Center
Sat 04:09:01 PM 42.6600 -121.7717 176° South 415 478 41,000  Level Seattle Center
Sat 04:10:02 PM 42.5433 -121.7611 176° South 418 481 41,000  Level Seattle Center
Sat 04:11:03 PM 42.4272 -121.7508 176° South 418 481 41,000  Level Seattle Center
Sat 04:12:04 PM 42.3108 -121.7400 176° South 416 479 41,000  Level Seattle Center
Sat 04:13:05 PM 42.1914 -121.7294 176° South 422 486 41,000  Level Seattle Center
Sat 04:14:05 PM 42.0722 -121.7028 171° South 426 490 41,000  Level Seattle Center
Sat 04:15:06 PM 41.9544 -121.6692 168° South 426 490 41,000  Level Seattle Center
Sat 04:16:07 PM 41.8364 -121.6344 168° South 428 493 41,000  Level Seattle Center
Sat 04:17:08 PM 41.7192 -121.5989 167° South 428 493 41,000  Level Seattle Center
Sat 04:18:09 PM 41.6019 -121.5644 168° South 430 495 41,000  Level Seattle Center
Sat 04:19:10 PM 41.4844 -121.5303 168° South 431 496 41,000  Level Seattle Center
Sat 04:20:10 PM 41.3667 -121.4958 168° South 432 497 41,000  Level Seattle Center
Sat 04:20:54 PM 41.2731 -121.4686 168° South 430 495 41,000  Level Oakland Center
Sat 04:21:55 PM 41.1550 -121.4350 168° South 435 501 41,000  Level Oakland Center
Sat 04:22:56 PM 41.0244 -121.3958 167° South 435 501 41,000  Level Oakland Center
Sat 04:23:13 PM 41.0122 -121.3928 169° South 436 502 41,000  Level Seattle Center
Sat 04:24:14 PM 40.8700 -121.3550 169° South 435 501 41,000  Level Seattle Center
Sat 04:25:15 PM 40.7506 -121.3203 168° South 438 504 41,000  Level Seattle Center
Sat 04:26:15 PM 40.6300 -121.2872 168° South 439 505 41,000  Level Seattle Center
Sat 04:27:01 PM 40.5464 -121.2619 167° South 438 504 41,000  Level Oakland Center
Sat 04:28:02 PM 40.4256 -121.2286 168° South 441 507 41,000  Level Oakland Center
Sat 04:29:04 PM 40.3047 -121.1942 168° South 443 510 41,000  Level Oakland Center
Sat 04:30:05 PM 40.1828 -121.1611 168° South 445 512 41,000  Level Oakland Center
Sat 04:31:06 PM 40.0614 -121.1278 168° South 445 512 41,000  Level Oakland Center
Sat 04:32:07 PM 39.9358 -121.0931 168° South 449 517 41,000  Level Oakland Center
Sat 04:33:08 PM 39.8136 -121.0583 168° South 449 517 41,000  Level Oakland Center
Sat 04:34:10 PM 39.6906 -121.0256 168° South 451 519 41,000  Level Oakland Center
Sat 04:35:11 PM 39.5417 -120.9842 168° South 456 525 41,000  Level Oakland Center
Sat 04:36:12 PM 39.4186 -120.9522 169° South 452 520 41,000  Level Oakland Center
Sat 04:37:13 PM 39.2947 -120.9172 168° South 454 522 41,000  Level Oakland Center
Sat 04:38:15 PM 39.1708 -120.8842 168° South 453 521 41,000  Level Oakland Center
Sat 04:39:16 PM 39.0461 -120.8500 168° South 455 524 41,000  Level Oakland Center
Sat 04:40:17 PM 38.9219 -120.8169 168° South 453 521 41,000  Level Oakland Center
Sat 04:41:18 PM 38.7967 -120.7839 168° South 455 524 41,000  Level Oakland Center
Sat 04:42:20 PM 38.6722 -120.7489 168° South 453 521 41,000  Level Oakland Center
Sat 04:43:21 PM 38.5467 -120.7164 169° South 455 524 41,000  Level Oakland Center
Sat 04:44:22 PM 38.4211 -120.6828 168° South 455 524 41,000  Level Oakland Center
Sat 04:45:23 PM 38.2964 -120.6511 169° South 455 524 41,000  Level Oakland Center
Sat 04:46:25 PM 38.1725 -120.6181 168° South 453 521 41,000  Level Oakland Center
Sat 04:47:26 PM 38.0489 -120.5856 168° South 453 521 41,000  Level Oakland Center
Sat 04:48:27 PM 37.9250 -120.5528 168° South 452 520 41,000  Level Oakland Center
Sat 04:49:28 PM 37.8025 -120.5208 168° South 449 517 41,000  Level Oakland Center
Sat 04:50:29 PM 37.6531 -120.4825 169° South 454 522 41,000  Level Oakland Center
Sat 04:51:31 PM 37.5292 -120.4506 168° South 454 522 41,000  Level Oakland Center
Sat 04:52:32 PM 37.4061 -120.4189 168° South 452 520 41,000  Level Oakland Center
Sat 04:53:33 PM 37.2772 -120.3908 170° South 469 540 41,000 -246 Level Oakland Center
Sat 04:54:34 PM 37.1531 -120.3589 168° South 454 522 40,500 -541 Descending Oakland Center
Sat 04:55:35 PM 37.0308 -120.3275 168° South 446 513 39,900 -683 Descending Oakland Center
Sat 04:56:37 PM 36.9142 -120.2936 167° South 431 496 39,100 -878 Descending Oakland Center
Sat 04:57:38 PM 36.7944 -120.2650 169° South 458 527 38,100 -1,131 Descending Oakland Center
Sat 04:58:39 PM 36.6481 -120.2250 168° South 443 510 36,800 -1,131 Descending Oakland Center
Sat 04:59:40 PM 36.5231 -120.1931 168° South 471 542 35,800 -1,033 Descending Oakland Center
Sat 05:00:41 PM 36.3989 -120.1633 169° South 448 516 34,700 -1,024 Descending Oakland Center
Sat 05:01:43 PM 36.2769 -120.1317 168° South 442 509 33,700 -829 Descending Oakland Center
Sat 05:02:44 PM 36.1547 -120.1003 168° South 445 512 33,000 -344 Descending Oakland Center
Sat 05:03:45 PM 36.0356 -120.0711 169° South 435 501 33,000  Level Oakland Center
Sat 05:04:46 PM 35.9197 -120.0467 170° South 423 487 33,000  Level Oakland Center
Sat 05:05:47 PM 35.8000 -120.0164 168° South 433 498 33,000 -49 Level Oakland Center
Sat 05:06:49 PM 35.6822 -119.9861 168° South 431 496 32,900  Descending Oakland Center
Sat 05:07:50 PM 35.5792 -119.9172 151° Southeast 420 483 33,000  Climbing Oakland Center
Sat 05:08:51 PM 35.4833 -119.8353 145° Southeast 418 481 32,900 -541 Descending Oakland Center
Sat 05:09:52 PM 35.3875 -119.7539 145° Southeast 417 480 31,900 -1,073 Descending Oakland Center
Sat 05:10:54 PM 35.2931 -119.6731 145° Southeast 415 478 30,700 -1,268 Descending Oakland Center
Sat 05:11:55 PM 35.1844 -119.5800 145° Southeast 398 458 29,300 -1,279 Descending Oakland Center
Sat 05:12:56 PM 35.0956 -119.5039 145° Southeast 392 451 28,100 -1,156 Descending Oakland Center
Sat 05:14:10 PM 34.9928 -119.4156 145° Southeast 378 435 26,700 -1,664 Descending Los Angeles Center
Sat 05:15:13 PM 34.9050 -119.3411 145° Southeast 381 438 24,300 -2,544 Descending Los Angeles Center
Sat 05:16:15 PM 34.8167 -119.2664 145° Southeast 386 444 21,400 -2,758 Descending Los Angeles Center
Sat 05:17:17 PM 34.7319 -119.1947 145° Southeast 370 426 18,600 -2,710 Descending Los Angeles Center
Sat 05:18:19 PM 34.6425 -119.1183 145° Southeast 345 397 15,800 -2,565 Descending Los Angeles Center
Sat 05:19:21 PM 34.5664 -119.0581 147° Southeast 318 366 13,300 -2,274 Descending Los Angeles Center
Sat 05:20:23 PM 34.4931 -118.9983 146° Southeast 318 366 11,100 -1,161 Descending Los Angeles Center
Sat 05:21:25 PM 34.4267 -118.9381 143° Southeast 303 349 10,900 -774 Descending Los Angeles Center
Sat 05:22:27 PM 34.3586 -118.8789 144° Southeast 304 350 9,500 -919 Descending Los Angeles Center
Sat 05:23:29 PM 34.3272 -118.7931 114° Southeast 273 314 9,000 -532 Descending Los Angeles Center
Sat 05:24:31 PM 34.2933 -118.6947 113° Southeast 265 305 8,400 -915 Descending Los Angeles Center
Sat 05:25:27 PM 34.2667 -118.6167 112° Southeast 277 319 7,200 -724 Descending Southern California TRACON
Sat 05:26:27 PM 34.2333 -118.5333 116° Southeast 262 302 7,000 -350 Descending Southern California TRACON
Sat 05:27:27 PM 34.2167 -118.4500 104° East 271 312 6,500 -727 Descending Southern California TRACON
Sat 05:28:39 PM 34.1822 -118.3572 114° Southeast 264 304 5,400 -1,164 Descending Los Angeles Center
Sat 05:29:41 PM 34.1169 -118.3436 170° South 253 291 3,900 -1,452 Descending Los Angeles Center
Sat 05:30:43 PM 34.0583 -118.3994 218° Southwest 233 268 2,400 -1,548 Descending Los Angeles Center
Sat 05:31:45 PM 34.0300 -118.4369 228° Southwest 186 214 700 -1,104 Descending Los Angeles Center
Sat 05:32:48 PM 34.0139 -118.4542 222° Southwest 109 125 100 -571 Descending Los Angeles Center
Sat 05:34:00 PM 34.0158 -118.4513 180° South  Level Estimated
Sat 05:41:00 PM 34.0158 -118.4513 180° South  Level Estimated

Login

Don't have an account? Register now (free) for customized features, flight alerts, and more!